Portada
METAR-TAF:

METAR-TAF

Aeroports :

Illa Christmas, Austràlia

latitud: 10-26S, longitud: 105-41E, altitud: 279 m

Observació

L'informe es va fer fa 27 minuts, a les 02:00 UTC
Vent 7 kt del Sud-Est, variant entre Est/Sud-Est i Sud
Temperatura 27°C
Humitat 74%
Pressió 1014 hPa
Visibilitat 10 km o més
Núvols disperses a una alçada de 1800 ft

METAR: YPXM 130200Z AUTO 14007KT 110V190 9999 // SCT018 27/22 Q1014

Hora: 09:27 (02:27 UTC)

Pronòstic

L'informe es va fer fa 3 hores i 6 minuts, a les 23:21 UTC
Pronòstic vàlid del 13 a les 00 UTC al 14 a les 00 UTC
Vent 6 kt del Sud/Sud-Est
Visibilitat 10 km o més
Núvols disperses a una alçada de 1600 ft

TAF: YPXM 122321Z 1300/1400 15006KT 9999 SCT016

Observacions i pronòstics meteorològics de més de 4000 aeroports (METAR i TAF).

Les estacions disponibles són els punts grocs i vermells al mapa.

Posi el ratolí al punt desitjat per veure el nom de l'estació.

Feu clic per veure les observacions i els pronòstics meteorològics.

Per canviar el mapa: feu clic els botons verds amb una creu de color negre per apropar; al botó verd amb un guió per allunyar la imatge; o en les fletxes verdes per a mapes adjacents.


METAR-TAF: